createdAt,value
2019-05-03T00:00:18.798Z,0.00
2019-05-03T00:01:18.792Z,0.00
2019-05-03T00:02:18.782Z,0.00
2019-05-03T00:03:19.743Z,0.00
2019-05-03T00:04:18.755Z,0.00
2019-05-03T00:05:18.780Z,0.00
2019-05-03T00:06:18.734Z,0.00
2019-05-03T00:07:18.730Z,0.00
2019-05-03T00:08:18.714Z,0.00
2019-05-03T00:09:18.698Z,0.00
2019-05-03T00:10:18.694Z,0.00
2019-05-03T00:11:18.703Z,0.00
2019-05-03T00:12:18.672Z,0.00
2019-05-03T00:13:18.661Z,0.00
2019-05-03T00:14:18.649Z,0.00
2019-05-03T00:15:18.635Z,0.00
2019-05-03T00:16:18.625Z,0.00
2019-05-03T00:17:18.638Z,0.00
2019-05-03T00:18:18.614Z,0.00
2019-05-03T00:19:18.605Z,0.00
2019-05-03T00:20:18.589Z,0.00
2019-05-03T00:21:18.576Z,0.00
2019-05-03T00:22:18.570Z,0.00
2019-05-03T00:23:18.581Z,0.00
2019-05-03T00:24:18.559Z,0.00
2019-05-03T00:25:18.540Z,0.00
2019-05-03T00:26:18.523Z,0.00
2019-05-03T00:27:18.513Z,0.00
2019-05-03T00:28:18.500Z,0.00
2019-05-03T00:29:18.513Z,0.00
2019-05-03T00:30:18.488Z,0.00
2019-05-03T00:31:18.473Z,0.00
2019-05-03T00:32:18.458Z,0.00
2019-05-03T00:33:18.467Z,0.00
2019-05-03T00:34:18.440Z,0.00
2019-05-03T00:35:18.452Z,0.00
2019-05-03T00:36:18.431Z,0.00
2019-05-03T00:37:18.438Z,0.00
2019-05-03T00:38:18.395Z,0.00
2019-05-03T00:39:18.389Z,0.00
2019-05-03T00:40:18.381Z,0.00
2019-05-03T00:41:18.389Z,0.00
2019-05-03T00:42:18.360Z,0.00
2019-05-03T00:43:18.343Z,0.00
2019-05-03T00:44:18.339Z,0.00
2019-05-03T00:45:18.331Z,0.00
2019-05-03T00:46:18.358Z,0.00
2019-05-03T00:47:18.311Z,0.00
2019-05-03T00:48:18.311Z,0.00
2019-05-03T00:49:18.281Z,0.00
2019-05-03T00:50:18.276Z,0.00
2019-05-03T00:51:18.273Z,0.00
2019-05-03T00:52:18.294Z,0.00
2019-05-03T00:53:18.257Z,0.00
2019-05-03T00:54:18.277Z,0.00
2019-05-03T00:55:19.265Z,0.00
2019-05-03T00:56:18.210Z,0.00
2019-05-03T00:57:18.226Z,0.00
2019-05-03T00:58:18.220Z,0.00
2019-05-03T00:59:18.186Z,0.00
2019-05-03T01:00:18.168Z,0.00
2019-05-03T01:01:18.160Z,0.00
2019-05-03T01:02:18.154Z,0.00
2019-05-03T01:03:18.143Z,0.00
2019-05-03T01:04:18.159Z,0.00
2019-05-03T01:05:18.132Z,0.00
2019-05-03T01:06:18.107Z,0.00
2019-05-03T01:07:18.099Z,0.00
2019-05-03T01:08:18.085Z,0.00
2019-05-03T01:09:18.074Z,0.00
2019-05-03T01:10:18.099Z,0.00
2019-05-03T01:11:18.066Z,0.00
2019-05-03T01:12:18.042Z,0.00
2019-05-03T01:13:18.029Z,0.00
2019-05-03T01:14:18.019Z,0.00
2019-05-03T01:15:18.022Z,0.00
2019-05-03T01:16:18.028Z,0.00
2019-05-03T01:17:18.001Z,0.00
2019-05-03T01:18:17.975Z,0.00
2019-05-03T01:19:17.975Z,0.00
2019-05-03T01:20:17.970Z,0.00
2019-05-03T01:21:18.035Z,0.00
2019-05-03T01:22:17.970Z,0.00
2019-05-03T01:23:17.928Z,0.00
2019-05-03T01:24:18.353Z,0.00
2019-05-03T01:25:29.123Z,0.00
2019-05-03T01:26:18.901Z,0.00
2019-05-03T01:27:17.889Z,0.00
2019-05-03T01:28:17.897Z,0.00
2019-05-03T01:29:18.003Z,0.00
2019-05-03T01:30:17.854Z,0.00
2019-05-03T01:31:17.850Z,0.00
2019-05-03T01:32:17.840Z,0.00
2019-05-03T01:33:17.833Z,0.00
2019-05-03T01:34:17.846Z,0.00
2019-05-03T01:35:17.808Z,0.00
2019-05-03T01:36:17.804Z,0.00
2019-05-03T01:37:17.784Z,0.00
2019-05-03T01:38:19.479Z,0.00
2019-05-03T01:39:17.773Z,0.00
2019-05-03T01:40:17.769Z,0.00
2019-05-03T01:41:17.751Z,0.00
2019-05-03T01:42:17.722Z,0.00
2019-05-03T01:43:17.713Z,0.00
2019-05-03T01:44:17.708Z,0.00
2019-05-03T01:45:17.696Z,0.00
2019-05-03T01:46:17.721Z,0.00
2019-05-03T01:47:17.681Z,0.00
2019-05-03T01:48:17.662Z,0.00
2019-05-03T01:49:17.652Z,0.00
2019-05-03T01:50:17.643Z,0.00
2019-05-03T01:51:17.637Z,0.00
2019-05-03T01:52:17.653Z,0.00
2019-05-03T01:53:17.615Z,0.00
2019-05-03T01:54:17.599Z,0.00
2019-05-03T01:55:17.589Z,0.00
2019-05-03T01:56:17.707Z,0.00
2019-05-03T01:57:17.578Z,0.00
2019-05-03T01:58:17.592Z,0.00
2019-05-03T01:59:17.552Z,0.00
2019-05-03T02:00:17.541Z,0.00
2019-05-03T02:01:17.536Z,0.00
2019-05-03T02:02:17.526Z,0.00
2019-05-03T02:03:17.513Z,0.00
2019-05-03T02:04:17.532Z,0.00
2019-05-03T02:05:17.490Z,0.00
2019-05-03T02:06:17.475Z,0.00
2019-05-03T02:07:17.478Z,0.00
2019-05-03T02:08:17.462Z,0.00
2019-05-03T02:09:17.446Z,0.00
2019-05-03T02:10:17.466Z,0.00
2019-05-03T02:11:17.436Z,0.00
2019-05-03T02:12:17.417Z,0.00
2019-05-03T02:13:17.402Z,0.00
2019-05-03T02:14:17.400Z,0.00
2019-05-03T02:15:17.379Z,0.00
2019-05-03T02:16:17.407Z,0.00
2019-05-03T02:17:17.362Z,0.00
2019-05-03T02:18:17.356Z,0.00
2019-05-03T02:19:17.345Z,0.00
2019-05-03T02:20:17.327Z,0.00
2019-05-03T02:21:17.330Z,0.00
2019-05-03T02:22:17.342Z,0.00
2019-05-03T02:23:17.301Z,0.00
2019-05-03T02:24:17.294Z,0.00
2019-05-03T02:25:17.289Z,0.00
2019-05-03T02:26:17.271Z,0.00
2019-05-03T02:27:17.262Z,0.00
2019-05-03T02:28:17.279Z,0.00
2019-05-03T02:29:17.237Z,0.00
2019-05-03T02:30:17.226Z,0.00
2019-05-03T02:31:17.212Z,0.00
2019-05-03T02:32:17.203Z,0.00
2019-05-03T02:33:17.200Z,0.00
2019-05-03T02:34:17.215Z,0.00
2019-05-03T02:35:17.178Z,0.00
2019-05-03T02:36:17.175Z,0.00
2019-05-03T02:37:17.164Z,0.00
2019-05-03T02:38:17.142Z,0.00
2019-05-03T02:39:17.158Z,0.00
2019-05-03T02:40:20.425Z,0.00
2019-05-03T02:41:17.108Z,0.00
2019-05-03T02:42:17.111Z,0.00
2019-05-03T02:43:17.116Z,0.00
2019-05-03T02:44:17.085Z,0.00
2019-05-03T02:45:17.097Z,0.00
2019-05-03T02:46:17.142Z,0.00
2019-05-03T02:47:17.045Z,0.00
2019-05-03T02:48:17.038Z,0.00
2019-05-03T02:49:17.024Z,0.00
2019-05-03T02:50:17.021Z,0.00
2019-05-03T02:51:17.029Z,0.00
2019-05-03T02:52:16.990Z,0.00
2019-05-03T02:53:16.984Z,0.00
2019-05-03T02:54:16.985Z,0.00
2019-05-03T02:55:16.996Z,0.00
2019-05-03T02:56:22.344Z,0.00
2019-05-03T02:57:18.013Z,0.00
2019-05-03T02:58:16.924Z,0.00
2019-05-03T02:59:16.914Z,0.00
2019-05-03T03:00:16.914Z,0.00
2019-05-03T03:01:16.905Z,0.00
2019-05-03T03:02:16.895Z,0.00
2019-05-03T03:03:16.902Z,0.00
2019-05-03T03:04:16.920Z,0.00
2019-05-03T03:05:16.936Z,0.00
2019-05-03T03:06:16.845Z,0.00
2019-05-03T03:07:16.832Z,0.00
2019-05-03T03:08:16.827Z,0.00
2019-05-03T03:09:16.840Z,0.00
2019-05-03T03:10:16.799Z,0.00
2019-05-03T03:11:16.792Z,4.00
2019-05-03T03:12:16.781Z,4.00
2019-05-03T03:13:16.768Z,0.00
2019-05-03T03:14:17.025Z,4.00
2019-05-03T03:15:16.780Z,4.00
2019-05-03T03:16:20.352Z,4.00
2019-05-03T03:17:16.730Z,4.00
2019-05-03T03:18:16.741Z,4.00
2019-05-03T03:19:16.723Z,8.00
2019-05-03T03:20:16.701Z,8.00
2019-05-03T03:21:16.758Z,8.00
2019-05-03T03:22:16.673Z,8.00
2019-05-03T03:23:18.037Z,8.00
2019-05-03T03:24:17.332Z,8.00
2019-05-03T03:25:17.529Z,12.00
2019-05-03T03:26:32.417Z,16.00
2019-05-03T03:27:17.647Z,16.00
2019-05-03T03:28:16.616Z,16.00
2019-05-03T03:29:16.713Z,20.00
2019-05-03T03:30:17.334Z,20.00
2019-05-03T03:31:17.667Z,24.00
2019-05-03T03:32:18.138Z,28.00
2019-05-03T03:33:17.766Z,28.00
2019-05-03T03:34:18.447Z,36.00
2019-05-03T03:35:21.165Z,36.00
2019-05-03T03:36:49.773Z,40.00
2019-05-03T03:37:17.526Z,44.00
2019-05-03T03:38:16.512Z,48.00
2019-05-03T03:39:16.516Z,52.00
2019-05-03T03:40:16.480Z,60.00
2019-05-03T03:41:16.513Z,68.00
2019-05-03T03:42:16.463Z,72.00
2019-05-03T03:43:16.464Z,80.00
2019-05-03T03:44:16.444Z,84.00
2019-05-03T03:45:16.805Z,92.00
2019-05-03T03:46:16.419Z,100.00
2019-05-03T03:47:17.018Z,108.00
2019-05-03T03:48:16.420Z,116.00
2019-05-03T03:49:16.416Z,124.00
2019-05-03T03:50:16.390Z,132.00
2019-05-03T03:51:16.393Z,140.00
2019-05-03T03:52:16.384Z,152.00
2019-05-03T03:53:16.351Z,160.00
2019-05-03T03:54:16.341Z,168.00
2019-05-03T03:55:16.322Z,180.00
2019-05-03T03:56:16.322Z,192.00
2019-05-03T03:57:16.339Z,200.00
2019-05-03T03:58:22.562Z,212.00
2019-05-03T03:59:17.284Z,220.00
2019-05-03T04:00:16.478Z,236.00
2019-05-03T04:01:16.263Z,244.00
2019-05-03T04:02:16.406Z,252.00
2019-05-03T04:03:16.335Z,264.00
2019-05-03T04:04:16.239Z,276.00
2019-05-03T04:05:16.221Z,288.00
2019-05-03T04:06:16.209Z,296.00
2019-05-03T04:07:16.204Z,308.00
2019-05-03T04:08:16.473Z,320.00
2019-05-03T04:09:16.245Z,332.00
2019-05-03T04:10:16.186Z,344.00
2019-05-03T04:11:16.161Z,352.00
2019-05-03T04:12:16.697Z,364.00
2019-05-03T04:13:16.271Z,376.00
2019-05-03T04:14:16.321Z,388.00
2019-05-03T04:15:16.145Z,400.00
2019-05-03T04:16:20.595Z,408.00
2019-05-03T04:17:16.109Z,424.00
2019-05-03T04:18:16.429Z,436.00
2019-05-03T04:19:17.382Z,444.00
2019-05-03T04:20:16.341Z,452.00
2019-05-03T04:21:16.363Z,464.00
2019-05-03T04:22:16.620Z,476.00
2019-05-03T04:23:16.430Z,484.00
2019-05-03T04:24:16.433Z,496.00
2019-05-03T04:25:16.030Z,512.00
2019-05-03T04:26:16.458Z,520.00
2019-05-03T04:27:22.882Z,528.00
2019-05-03T04:28:16.978Z,540.00
2019-05-03T04:29:16.259Z,568.00
2019-05-03T04:30:16.677Z,636.00
2019-05-03T04:31:15.957Z,604.00
2019-05-03T04:32:16.005Z,576.00
2019-05-03T04:33:16.153Z,584.00
2019-05-03T04:34:16.331Z,592.00
2019-05-03T04:35:16.564Z,612.00
2019-05-03T04:36:16.142Z,616.00
2019-05-03T04:37:16.403Z,632.00
2019-05-03T04:38:16.446Z,644.00
2019-05-03T04:39:20.055Z,624.00
2019-05-03T04:40:16.123Z,628.00
2019-05-03T04:41:16.047Z,644.00
2019-05-03T04:42:16.738Z,656.00
2019-05-03T04:43:16.655Z,660.00
2019-05-03T04:44:15.833Z,668.00
2019-05-03T04:45:16.558Z,672.00
2019-05-03T04:46:16.375Z,680.00
2019-05-03T04:47:15.936Z,688.00
2019-05-03T04:48:16.234Z,696.00
2019-05-03T04:49:15.769Z,704.00
2019-05-03T04:50:16.465Z,708.00
2019-05-03T04:51:16.655Z,716.00
2019-05-03T04:52:16.551Z,724.00
2019-05-03T04:53:16.307Z,732.00
2019-05-03T04:54:16.517Z,740.00
2019-05-03T04:55:16.123Z,748.00
2019-05-03T04:56:16.853Z,760.00
2019-05-03T04:57:17.642Z,768.00
2019-05-03T04:58:16.663Z,772.00
2019-05-03T04:59:16.109Z,776.00
2019-05-03T05:00:16.138Z,784.00
2019-05-03T05:01:15.966Z,788.00
2019-05-03T05:02:16.104Z,788.00
2019-05-03T05:03:15.600Z,792.00
2019-05-03T05:04:16.082Z,800.00
2019-05-03T05:05:15.672Z,804.00
2019-05-03T05:06:15.674Z,812.00
2019-05-03T05:07:15.821Z,816.00
2019-05-03T05:08:16.278Z,832.00
2019-05-03T05:09:15.796Z,836.00
2019-05-03T05:10:15.673Z,836.00
2019-05-03T05:11:15.892Z,844.00
2019-05-03T05:12:16.374Z,844.00
2019-05-03T05:13:15.864Z,848.00
2019-05-03T05:14:15.575Z,852.00
2019-05-03T05:15:15.870Z,860.00
2019-05-03T05:16:16.156Z,864.00
2019-05-03T05:17:16.360Z,872.00
2019-05-03T05:18:16.137Z,876.00
2019-05-03T05:19:15.463Z,880.00
2019-05-03T05:20:15.447Z,884.00
2019-05-03T05:21:15.478Z,892.00
2019-05-03T05:22:15.656Z,896.00
2019-05-03T05:23:15.434Z,908.00
2019-05-03T05:24:15.415Z,924.00
2019-05-03T05:25:15.381Z,920.00
2019-05-03T05:26:15.404Z,916.00
2019-05-03T05:27:15.361Z,924.00
2019-05-03T05:28:15.359Z,920.00
2019-05-03T05:29:15.339Z,924.00
2019-05-03T05:30:15.323Z,924.00
2019-05-03T05:31:15.314Z,928.00
2019-05-03T05:32:15.334Z,940.00
2019-05-03T05:33:15.285Z,948.00
2019-05-03T05:34:15.437Z,964.00
2019-05-03T05:35:15.263Z,964.00
2019-05-03T05:36:15.448Z,976.00
2019-05-03T05:37:15.245Z,960.00
2019-05-03T05:38:15.274Z,948.00
2019-05-03T05:39:16.231Z,948.00
2019-05-03T05:40:15.676Z,960.00
2019-05-03T05:41:15.716Z,968.00
2019-05-03T05:42:15.219Z,968.00
2019-05-03T05:43:15.313Z,968.00
2019-05-03T05:44:15.218Z,972.00
2019-05-03T05:45:15.436Z,976.00
2019-05-03T05:46:15.167Z,980.00
2019-05-03T05:47:15.145Z,980.00
2019-05-03T05:48:15.412Z,976.00
2019-05-03T05:49:15.120Z,976.00
2019-05-03T05:50:15.143Z,976.00
2019-05-03T05:51:16.139Z,980.00
2019-05-03T05:52:15.536Z,984.00
2019-05-03T05:53:15.295Z,992.00
2019-05-03T05:54:15.080Z,996.00
2019-05-03T05:55:15.057Z,1000.00
2019-05-03T05:56:15.766Z,1004.00
2019-05-03T05:57:15.046Z,1008.00
2019-05-03T05:58:15.679Z,1012.00
2019-05-03T05:59:15.063Z,1020.00
2019-05-03T06:00:15.372Z,1024.00
2019-05-03T06:01:14.999Z,1032.00
2019-05-03T06:02:15.138Z,1044.00
2019-05-03T06:03:15.042Z,1052.00
2019-05-03T06:04:15.425Z,1060.00
2019-05-03T06:05:14.967Z,1064.00
2019-05-03T06:06:15.272Z,1080.00
2019-05-03T06:07:14.945Z,1096.00
2019-05-03T06:08:15.173Z,1116.00
2019-05-03T06:09:15.309Z,1180.00
2019-05-03T06:10:16.707Z,1560.00
2019-05-03T06:11:14.949Z,1500.00
2019-05-03T06:12:15.050Z,1428.00
2019-05-03T06:13:15.275Z,1120.00
2019-05-03T06:14:15.297Z,1140.00
2019-05-03T06:15:15.074Z,1148.00
2019-05-03T06:16:15.488Z,1176.00
2019-05-03T06:17:14.839Z,1204.00
2019-05-03T06:18:14.826Z,1296.00
2019-05-03T06:19:14.818Z,1604.00
2019-05-03T06:20:15.607Z,2408.00
2019-05-03T06:21:14.919Z,3844.00
2019-05-03T06:22:15.379Z,3644.00
2019-05-03T06:23:14.771Z,2908.00
2019-05-03T06:24:14.875Z,4056.00
2019-05-03T06:25:16.639Z,3748.00
2019-05-03T06:26:15.652Z,3092.00
2019-05-03T06:27:15.304Z,2808.00
2019-05-03T06:28:20.509Z,3556.00
2019-05-03T06:29:15.714Z,3596.00
2019-05-03T06:30:14.996Z,3564.00
2019-05-03T06:31:14.953Z,3300.00
2019-05-03T06:32:15.358Z,3060.00
2019-05-03T06:33:14.670Z,2792.00
2019-05-03T06:34:15.054Z,2180.00
2019-05-03T06:35:15.241Z,2420.00
2019-05-03T06:36:15.225Z,2916.00
2019-05-03T06:37:14.868Z,2864.00
2019-05-03T06:38:15.252Z,2396.00
2019-05-03T06:39:15.423Z,2300.00
2019-05-03T06:40:15.035Z,2808.00
2019-05-03T06:41:15.149Z,3800.00
2019-05-03T06:42:18.987Z,4228.00
2019-05-03T06:43:15.741Z,4356.00
2019-05-03T06:44:14.593Z,4336.00
2019-05-03T06:45:15.068Z,3952.00
2019-05-03T06:46:17.884Z,3292.00
2019-05-03T06:47:14.907Z,2060.00
2019-05-03T06:48:17.277Z,1636.00
2019-05-03T06:49:15.130Z,1564.00
2019-05-03T06:50:14.676Z,1924.00
2019-05-03T06:51:19.450Z,2296.00
2019-05-03T06:52:19.750Z,2284.00
2019-05-03T06:53:15.618Z,2148.00
2019-05-03T06:54:15.710Z,2308.00
2019-05-03T06:55:14.731Z,2664.00
2019-05-03T06:56:14.878Z,2852.00
2019-05-03T06:57:14.791Z,2820.00
2019-05-03T06:58:16.501Z,2796.00
2019-05-03T06:59:15.403Z,2772.00
2019-05-03T07:00:15.460Z,3644.00
2019-05-03T07:01:14.922Z,4572.00
2019-05-03T07:02:14.889Z,4964.00
2019-05-03T07:03:15.168Z,5020.00
2019-05-03T07:04:15.232Z,4528.00
2019-05-03T07:05:15.295Z,4400.00
2019-05-03T07:06:14.988Z,4472.00
2019-05-03T07:07:15.548Z,4424.00
2019-05-03T07:08:15.212Z,4940.00
2019-05-03T07:09:14.488Z,3116.00
2019-05-03T07:10:15.003Z,4900.00
2019-05-03T07:11:15.443Z,4300.00
2019-05-03T07:12:14.941Z,2216.00
2019-05-03T07:13:15.183Z,2168.00
2019-05-03T07:14:15.552Z,1740.00
2019-05-03T07:15:14.520Z,2248.00
2019-05-03T07:16:14.911Z,2968.00
2019-05-03T07:17:14.575Z,2192.00
2019-05-03T07:18:15.707Z,3408.00
2019-05-03T07:19:14.716Z,1744.00
2019-05-03T07:20:14.838Z,1468.00
2019-05-03T07:21:15.275Z,1372.00
2019-05-03T07:22:15.250Z,1392.00
2019-05-03T07:23:15.613Z,1500.00
2019-05-03T07:24:14.697Z,1512.00
2019-05-03T07:25:14.955Z,1524.00
2019-05-03T07:26:15.074Z,1540.00
2019-05-03T07:27:15.868Z,1540.00
2019-05-03T07:28:14.933Z,1552.00
2019-05-03T07:29:15.235Z,1608.00
2019-05-03T07:30:15.643Z,1672.00
2019-05-03T07:31:15.131Z,1784.00
2019-05-03T07:32:15.597Z,1828.00
2019-05-03T07:33:15.089Z,2216.00
2019-05-03T07:34:15.615Z,2780.00
2019-05-03T07:35:14.743Z,2812.00
2019-05-03T07:36:15.275Z,2768.00
2019-05-03T07:37:14.567Z,3828.00
2019-05-03T07:38:15.533Z,4632.00
2019-05-03T07:39:14.526Z,4388.00
2019-05-03T07:40:14.865Z,5460.00
2019-05-03T07:41:14.917Z,7336.00
2019-05-03T07:42:15.632Z,6436.00
2019-05-03T07:43:14.839Z,4000.00
2019-05-03T07:44:15.209Z,2896.00
2019-05-03T07:45:14.907Z,2324.00
2019-05-03T07:46:14.757Z,1776.00
2019-05-03T07:47:14.859Z,1516.00
2019-05-03T07:48:15.059Z,1508.00
2019-05-03T07:49:15.341Z,1576.00
2019-05-03T07:50:15.262Z,1692.00
2019-05-03T07:51:14.425Z,1636.00
2019-05-03T07:52:14.722Z,1692.00
2019-05-03T07:53:15.006Z,1792.00
2019-05-03T07:54:15.684Z,2044.00
2019-05-03T07:55:14.980Z,2424.00
2019-05-03T07:56:15.481Z,2416.00
2019-05-03T07:57:14.923Z,1924.00
2019-05-03T07:58:15.048Z,1948.00
2019-05-03T07:59:15.002Z,2052.00
2019-05-03T08:00:14.995Z,2560.00
2019-05-03T08:01:14.961Z,2152.00
2019-05-03T08:02:14.459Z,2856.00
2019-05-03T08:03:15.476Z,3592.00
2019-05-03T08:04:15.385Z,4044.00
2019-05-03T08:05:15.425Z,5668.00
2019-05-03T08:06:14.932Z,6268.00
2019-05-03T08:07:20.574Z,5852.00
2019-05-03T08:08:15.075Z,5348.00
2019-05-03T08:09:15.292Z,4992.00
2019-05-03T08:10:15.294Z,4760.00
2019-05-03T08:11:14.455Z,4768.00
2019-05-03T08:12:15.334Z,4664.00
2019-05-03T08:13:15.091Z,4860.00
2019-05-03T08:14:16.088Z,5528.00
2019-05-03T08:15:15.600Z,6332.00
2019-05-03T08:16:15.925Z,6244.00
2019-05-03T08:17:15.220Z,5968.00
2019-05-03T08:18:15.305Z,5716.00
2019-05-03T08:19:15.179Z,5516.00
2019-05-03T08:20:14.407Z,5584.00
2019-05-03T08:21:14.925Z,5336.00
2019-05-03T08:22:14.932Z,4980.00
2019-05-03T08:23:26.295Z,4776.00
2019-05-03T08:24:14.986Z,5012.00
2019-05-03T08:25:14.653Z,5504.00
2019-05-03T08:26:15.297Z,6060.00
2019-05-03T08:27:14.821Z,6988.00
2019-05-03T08:28:14.606Z,7768.00
2019-05-03T08:29:19.012Z,6136.00
2019-05-03T08:30:14.746Z,4208.00
2019-05-03T08:31:15.085Z,3632.00
2019-05-03T08:32:15.326Z,3496.00
2019-05-03T08:33:14.752Z,4612.00
2019-05-03T08:34:15.279Z,5436.00
2019-05-03T08:35:15.276Z,6308.00
2019-05-03T08:36:15.472Z,6832.00
2019-05-03T08:37:15.233Z,6756.00
2019-05-03T08:38:15.204Z,5860.00
2019-05-03T08:39:15.737Z,5928.00
2019-05-03T08:40:15.450Z,6520.00
2019-05-03T08:41:14.513Z,6684.00
2019-05-03T08:42:14.998Z,6800.00
2019-05-03T08:43:15.414Z,6924.00
2019-05-03T08:44:14.544Z,7132.00
2019-05-03T08:45:14.781Z,7244.00
2019-05-03T08:46:14.862Z,7308.00
2019-05-03T08:47:15.357Z,7356.00
2019-05-03T08:48:15.096Z,7256.00
2019-05-03T08:49:14.997Z,7176.00
2019-05-03T08:50:17.549Z,7012.00
2019-05-03T08:51:14.853Z,6960.00
2019-05-03T08:52:15.541Z,6904.00
2019-05-03T08:53:15.445Z,6872.00
2019-05-03T08:54:14.980Z,6736.00
2019-05-03T08:55:13.168Z,6756.00
2019-05-03T08:56:13.151Z,6916.00
2019-05-03T08:57:15.024Z,6944.00
2019-05-03T08:58:13.132Z,6872.00
2019-05-03T08:59:26.548Z,7052.00
2019-05-03T09:00:14.483Z,7384.00
2019-05-03T09:01:14.843Z,7844.00
2019-05-03T09:02:17.287Z,8352.00
2019-05-03T09:03:14.430Z,8664.00
2019-05-03T09:04:13.085Z,8740.00
2019-05-03T09:05:13.100Z,8064.00
2019-05-03T09:06:15.262Z,7368.00
2019-05-03T09:07:14.814Z,5744.00
2019-05-03T09:08:13.054Z,4892.00
2019-05-03T09:09:14.974Z,5588.00
2019-05-03T09:10:16.753Z,4396.00
2019-05-03T09:11:12.992Z,1964.00
2019-05-03T09:12:14.523Z,1248.00
2019-05-03T09:13:14.731Z,1168.00
2019-05-03T09:14:14.889Z,1772.00
2019-05-03T09:15:12.974Z,2464.00
2019-05-03T09:16:14.739Z,2364.00
2019-05-03T09:17:15.123Z,3232.00
2019-05-03T09:18:16.873Z,5028.00
2019-05-03T09:19:14.678Z,6700.00
2019-05-03T09:20:12.890Z,7128.00
2019-05-03T09:21:14.762Z,7428.00
2019-05-03T09:22:14.777Z,7104.00
2019-05-03T09:23:14.738Z,6812.00
2019-05-03T09:24:12.912Z,6832.00
2019-05-03T09:25:12.847Z,7132.00
2019-05-03T09:26:14.880Z,7012.00
2019-05-03T09:27:12.844Z,6908.00
2019-05-03T09:28:14.929Z,6980.00
2019-05-03T09:29:14.726Z,7400.00
2019-05-03T09:30:14.494Z,8028.00
2019-05-03T09:31:12.775Z,7728.00
2019-05-03T09:32:14.675Z,7440.00
2019-05-03T09:33:12.831Z,7240.00
2019-05-03T09:34:14.574Z,7192.00
2019-05-03T09:35:27.200Z,7100.00
2019-05-03T09:36:14.698Z,6956.00
2019-05-03T09:37:12.720Z,6948.00
2019-05-03T09:38:14.813Z,6960.00
2019-05-03T09:39:14.795Z,6980.00
2019-05-03T09:40:12.687Z,6896.00
2019-05-03T09:41:14.860Z,6888.00
2019-05-03T09:42:12.665Z,7072.00
2019-05-03T09:43:12.655Z,7224.00
2019-05-03T09:44:12.658Z,7428.00
2019-05-03T09:45:12.656Z,7644.00
2019-05-03T09:46:14.402Z,7788.00
2019-05-03T09:47:14.522Z,7648.00
2019-05-03T09:48:14.872Z,7412.00
2019-05-03T09:49:14.453Z,7492.00
2019-05-03T09:50:12.586Z,7324.00
2019-05-03T09:51:14.572Z,7720.00
2019-05-03T09:52:12.558Z,7296.00
2019-05-03T09:53:14.675Z,6788.00
2019-05-03T09:54:14.723Z,7512.00
2019-05-03T09:55:14.443Z,7020.00
2019-05-03T09:56:12.543Z,7116.00
2019-05-03T09:57:12.529Z,7112.00
2019-05-03T09:58:12.490Z,7916.00
2019-05-03T09:59:14.661Z,8168.00
2019-05-03T10:00:12.468Z,6508.00
2019-05-03T10:01:12.462Z,4024.00
2019-05-03T10:02:12.453Z,2792.00
2019-05-03T10:03:12.469Z,1956.00
2019-05-03T10:04:12.446Z,1680.00
2019-05-03T10:05:12.437Z,1624.00
2019-05-03T10:06:14.418Z,1924.00
2019-05-03T10:07:12.416Z,3412.00
2019-05-03T10:08:12.410Z,5260.00
2019-05-03T10:09:12.441Z,6408.00
2019-05-03T10:10:12.365Z,7428.00
2019-05-03T10:11:15.159Z,7488.00
2019-05-03T10:12:12.355Z,7324.00
2019-05-03T10:13:16.783Z,7376.00
2019-05-03T10:14:15.444Z,7208.00
2019-05-03T10:15:12.316Z,6864.00
2019-05-03T10:16:12.308Z,6828.00
2019-05-03T10:17:12.295Z,6756.00
2019-05-03T10:18:12.296Z,6596.00
2019-05-03T10:19:14.296Z,6700.00
2019-05-03T10:20:12.278Z,6948.00
2019-05-03T10:21:14.669Z,7532.00
2019-05-03T10:22:12.252Z,7888.00
2019-05-03T10:23:12.267Z,8492.00
2019-05-03T10:24:12.231Z,8716.00
2019-05-03T10:25:12.210Z,8180.00
2019-05-03T10:26:12.220Z,7680.00
2019-05-03T10:27:12.244Z,7568.00
2019-05-03T10:28:12.182Z,7432.00
2019-05-03T10:29:12.156Z,7912.00
2019-05-03T10:30:13.359Z,8888.00
2019-05-03T10:31:12.137Z,8560.00
2019-05-03T10:32:12.159Z,7732.00
2019-05-03T10:33:12.178Z,7240.00
2019-05-03T10:34:12.111Z,6848.00
2019-05-03T10:35:12.144Z,6728.00
2019-05-03T10:36:12.083Z,6940.00
2019-05-03T10:37:12.142Z,7304.00
2019-05-03T10:38:12.142Z,7208.00
2019-05-03T10:39:12.055Z,6908.00
2019-05-03T10:40:12.046Z,6508.00
2019-05-03T10:41:12.074Z,6228.00
2019-05-03T10:42:12.044Z,6164.00
2019-05-03T10:43:12.008Z,5952.00
2019-05-03T10:44:12.029Z,5952.00
2019-05-03T10:45:12.060Z,6108.00
2019-05-03T10:46:11.971Z,6848.00
2019-05-03T10:47:11.996Z,7412.00
2019-05-03T10:48:12.006Z,7340.00
2019-05-03T10:49:11.943Z,7764.00
2019-05-03T10:50:11.960Z,6652.00
2019-05-03T10:51:11.949Z,6632.00
2019-05-03T10:52:11.923Z,7552.00
2019-05-03T10:53:11.898Z,7816.00
2019-05-03T10:54:11.890Z,8268.00
2019-05-03T10:55:11.878Z,8788.00
2019-05-03T10:56:13.841Z,8088.00
2019-05-03T10:57:11.855Z,6288.00
2019-05-03T10:58:11.842Z,6632.00
2019-05-03T10:59:11.839Z,7964.00
2019-05-03T11:00:39.384Z,8812.00
2019-05-03T11:01:12.838Z,9364.00
2019-05-03T11:02:11.806Z,9348.00
2019-05-03T11:03:11.815Z,8132.00
2019-05-03T11:04:11.794Z,6804.00
2019-05-03T11:05:11.773Z,6660.00
2019-05-03T11:06:11.765Z,6548.00
2019-05-03T11:07:11.771Z,6432.00
2019-05-03T11:08:11.737Z,6712.00
2019-05-03T11:09:11.731Z,7740.00
2019-05-03T11:10:11.717Z,9044.00
2019-05-03T11:11:11.837Z,8416.00
2019-05-03T11:12:11.688Z,6000.00
2019-05-03T11:13:11.708Z,3532.00
2019-05-03T11:14:11.673Z,2672.00
2019-05-03T11:15:11.664Z,3484.00
2019-05-03T11:16:11.659Z,5012.00
2019-05-03T11:17:11.634Z,6732.00
2019-05-03T11:18:11.657Z,7284.00
2019-05-03T11:19:11.630Z,7964.00
2019-05-03T11:20:11.611Z,7640.00
2019-05-03T11:21:11.596Z,7836.00
2019-05-03T11:22:11.591Z,7764.00
2019-05-03T11:23:11.582Z,8040.00
2019-05-03T11:24:11.595Z,8348.00
2019-05-03T11:25:11.560Z,8424.00
2019-05-03T11:26:11.579Z,7732.00
2019-05-03T11:27:11.526Z,7452.00
2019-05-03T11:28:11.536Z,7180.00
2019-05-03T11:29:11.540Z,5888.00
2019-05-03T11:30:11.529Z,6456.00
2019-05-03T11:31:11.520Z,6808.00
2019-05-03T11:32:11.875Z,6816.00
2019-05-03T11:33:11.466Z,5932.00
2019-05-03T11:34:11.483Z,6016.00
2019-05-03T11:35:11.836Z,5936.00
2019-05-03T11:36:11.489Z,6980.00
2019-05-03T11:37:11.430Z,7132.00
2019-05-03T11:38:11.418Z,6800.00
2019-05-03T11:39:11.418Z,6984.00
2019-05-03T11:40:11.397Z,8468.00
2019-05-03T11:41:11.381Z,10076.00
2019-05-03T11:42:11.395Z,9448.00
2019-05-03T11:43:11.355Z,8792.00
2019-05-03T11:44:11.348Z,5752.00
2019-05-03T11:45:11.351Z,3396.00
2019-05-03T11:46:11.342Z,1676.00
2019-05-03T11:47:11.315Z,1344.00
2019-05-03T11:48:11.323Z,1268.00
2019-05-03T11:49:11.285Z,1236.00
2019-05-03T11:50:11.274Z,1448.00
2019-05-03T11:51:11.293Z,2064.00
2019-05-03T11:52:11.267Z,3308.00
2019-05-03T11:53:11.317Z,5832.00
2019-05-03T11:54:11.254Z,7868.00
2019-05-03T11:55:12.246Z,8444.00
2019-05-03T11:56:12.215Z,8440.00
2019-05-03T11:57:11.240Z,7536.00
2019-05-03T11:58:11.191Z,7640.00
2019-05-03T11:59:11.183Z,7520.00
2019-05-03T12:00:11.189Z,7544.00
2019-05-03T12:01:16.285Z,7848.00
2019-05-03T12:02:12.172Z,8124.00
2019-05-03T12:03:11.162Z,8424.00
2019-05-03T12:04:11.129Z,9344.00
2019-05-03T12:05:11.134Z,9700.00
2019-05-03T12:06:11.133Z,9320.00
2019-05-03T12:07:11.094Z,9172.00
2019-05-03T12:08:11.089Z,8572.00
2019-05-03T12:09:11.121Z,8224.00
2019-05-03T12:10:28.485Z,7356.00
2019-05-03T12:11:12.095Z,7176.00
2019-05-03T12:12:11.036Z,6652.00
2019-05-03T12:13:11.030Z,5560.00
2019-05-03T12:14:11.026Z,5744.00
2019-05-03T12:15:11.007Z,7048.00
2019-05-03T12:16:17.876Z,7532.00
2019-05-03T12:17:19.478Z,7652.00
2019-05-03T12:18:11.977Z,7684.00
2019-05-03T12:19:17.116Z,8124.00
2019-05-03T12:20:13.434Z,8076.00
2019-05-03T12:21:12.434Z,7824.00
2019-05-03T12:22:11.360Z,8320.00
2019-05-03T12:23:11.703Z,8360.00
2019-05-03T12:24:11.471Z,8092.00
2019-05-03T12:25:11.522Z,7320.00
2019-05-03T12:26:13.310Z,7348.00
2019-05-03T12:27:10.874Z,10240.00
2019-05-03T12:28:10.878Z,10528.00
2019-05-03T12:29:10.889Z,10004.00